createdAt,value
2023-05-16T00:00:15.063Z,99650.47
2023-05-16T00:02:42.110Z,99646.25
2023-05-16T00:05:10.597Z,99638.53
2023-05-16T00:07:37.099Z,99644.09
2023-05-16T00:10:03.635Z,99640.59
2023-05-16T00:12:30.188Z,99640.59
2023-05-16T00:14:57.000Z,99646.50
2023-05-16T00:17:23.818Z,99644.56
2023-05-16T00:19:53.996Z,99639.84
2023-05-16T00:22:21.058Z,99639.13
2023-05-16T00:24:47.454Z,99641.66
2023-05-16T00:27:13.894Z,99632.81
2023-05-16T00:29:40.431Z,99640.69
2023-05-16T00:32:08.748Z,99645.00
2023-05-16T00:34:35.766Z,99646.00
2023-05-16T00:37:02.379Z,99640.81
2023-05-16T00:39:29.100Z,99643.47
2023-05-16T00:41:57.525Z,99656.75
2023-05-16T00:44:24.434Z,99650.22
2023-05-16T00:46:50.960Z,99655.28
2023-05-16T00:49:17.529Z,99649.00
2023-05-16T00:51:44.278Z,99644.50
2023-05-16T00:54:10.742Z,99646.78
2023-05-16T00:56:37.265Z,99645.69
2023-05-16T00:59:04.032Z,99646.66
2023-05-16T01:01:30.575Z,99648.34
2023-05-16T01:03:57.162Z,99648.34
2023-05-16T01:06:23.765Z,99645.81
2023-05-16T01:08:50.851Z,99648.72
2023-05-16T01:11:36.482Z,99655.84
2023-05-16T01:14:12.002Z,99649.59
2023-05-16T01:16:58.552Z,99648.47
2023-05-16T01:19:38.331Z,99647.38
2023-05-16T01:22:32.009Z,99643.84
2023-05-16T01:25:26.789Z,99651.97
2023-05-16T01:27:53.792Z,99653.78
2023-05-16T01:30:22.302Z,99646.66
2023-05-16T01:32:48.902Z,99648.34
2023-05-16T01:35:17.060Z,99655.44
2023-05-16T01:37:50.282Z,99653.66
2023-05-16T01:40:26.846Z,99653.78
2023-05-16T01:42:55.469Z,99657.16
2023-05-16T01:45:29.719Z,99655.44
2023-05-16T01:48:05.537Z,99661.88
2023-05-16T01:50:34.604Z,99652.09
2023-05-16T01:53:06.829Z,99651.97
2023-05-16T01:55:44.392Z,99659.09
2023-05-16T01:58:11.454Z,99657.16
2023-05-16T02:00:38.002Z,99661.34
2023-05-16T02:03:04.720Z,99658.84
2023-05-16T02:05:31.725Z,99658.25
2023-05-16T02:07:59.507Z,99658.84
2023-05-16T02:10:26.958Z,99657.75
2023-05-16T02:12:53.497Z,99659.44
2023-05-16T02:15:20.014Z,99662.47
2023-05-16T02:17:47.218Z,99655.44
2023-05-16T02:20:15.592Z,99659.81
2023-05-16T02:22:47.244Z,99656.44
2023-05-16T02:25:15.257Z,99654.16
2023-05-16T02:27:43.069Z,99657.09
2023-05-16T02:30:11.838Z,99666.53
2023-05-16T02:32:39.669Z,99661.50
2023-05-16T02:35:06.836Z,99666.66
2023-05-16T02:37:33.493Z,99664.00
2023-05-16T02:40:00.025Z,99669.19
2023-05-16T02:42:27.706Z,99668.22
2023-05-16T02:44:54.149Z,99661.81
2023-05-16T02:47:20.571Z,99664.59
2023-05-16T02:49:47.057Z,99661.81
2023-05-16T02:52:13.492Z,99663.75
2023-05-16T02:54:40.019Z,99664.38
2023-05-16T02:57:06.432Z,99660.81
2023-05-16T02:59:32.825Z,99664.41
2023-05-16T03:01:59.712Z,99668.31
2023-05-16T03:04:26.231Z,99671.31
2023-05-16T03:06:53.865Z,99676.91
2023-05-16T03:09:20.297Z,99676.16
2023-05-16T03:11:46.956Z,99673.28
2023-05-16T03:14:13.420Z,99674.84
2023-05-16T03:16:41.576Z,99675.53
2023-05-16T03:19:08.055Z,99677.50
2023-05-16T03:21:34.509Z,99676.91
2023-05-16T03:24:02.924Z,99682.84
2023-05-16T03:26:29.428Z,99685.03
2023-05-16T03:28:56.115Z,99690.22
2023-05-16T03:31:22.645Z,99684.69
2023-05-16T03:33:49.232Z,99685.78
2023-05-16T03:36:15.693Z,99687.00
2023-05-16T03:38:42.134Z,99691.59
2023-05-16T03:41:08.659Z,99689.66
2023-05-16T03:43:35.116Z,99687.25
2023-05-16T03:46:02.377Z,99693.97
2023-05-16T03:48:28.853Z,99692.91
2023-05-16T03:50:55.567Z,99692.63
2023-05-16T03:53:22.049Z,99690.47
2023-05-16T03:55:48.962Z,99702.28
2023-05-16T03:58:16.485Z,99703.34
2023-05-16T04:00:43.151Z,99713.00
2023-05-16T04:03:09.743Z,99709.41
2023-05-16T04:05:36.449Z,99708.31
2023-05-16T04:08:02.944Z,99709.75
2023-05-16T04:10:29.414Z,99706.38
2023-05-16T04:12:55.951Z,99712.53
2023-05-16T04:15:22.423Z,99714.81
2023-05-16T04:17:48.965Z,99709.91
2023-05-16T04:20:15.727Z,99717.75
2023-05-16T04:22:42.476Z,99713.38
2023-05-16T04:25:09.380Z,99709.16
2023-05-16T04:27:36.055Z,99716.03
2023-05-16T04:30:02.558Z,99721.47
2023-05-16T04:32:29.075Z,99732.09
2023-05-16T04:34:55.639Z,99721.72
2023-05-16T04:37:22.346Z,99721.25
2023-05-16T04:39:48.875Z,99721.50
2023-05-16T04:42:16.300Z,99718.13
2023-05-16T04:44:43.945Z,99720.97
2023-05-16T04:47:10.350Z,99731.84
2023-05-16T04:49:36.782Z,99729.81
2023-05-16T04:52:03.317Z,99736.41
2023-05-16T04:54:29.750Z,99741.25
2023-05-16T04:56:57.283Z,99744.38
2023-05-16T04:59:23.766Z,99737.25
2023-05-16T05:01:50.353Z,99747.03
2023-05-16T05:04:17.676Z,99746.09
2023-05-16T05:06:44.107Z,99744.88
2023-05-16T05:09:10.944Z,99748.84
2023-05-16T05:11:37.380Z,99753.19
2023-05-16T05:14:04.054Z,99754.50
2023-05-16T05:16:30.506Z,99761.03
2023-05-16T05:18:57.050Z,99770.47
2023-05-16T05:21:25.284Z,99764.78
2023-05-16T05:23:51.811Z,99770.09
2023-05-16T05:26:18.376Z,99769.72
2023-05-16T05:28:53.831Z,99762.50
2023-05-16T05:31:24.499Z,99764.66
2023-05-16T05:33:51.011Z,99764.94
2023-05-16T05:36:17.426Z,99768.66
2023-05-16T05:38:43.870Z,99762.88
2023-05-16T05:41:11.773Z,99773.38
2023-05-16T05:43:38.461Z,99769.75
2023-05-16T05:46:05.236Z,99775.06
2023-05-16T05:48:32.407Z,99777.13
2023-05-16T05:50:59.175Z,99765.50
2023-05-16T05:53:25.720Z,99769.03
2023-05-16T05:55:52.173Z,99774.47
2023-05-16T05:58:18.734Z,99779.88
2023-05-16T06:00:45.305Z,99779.28
2023-05-16T06:03:11.783Z,99777.81
2023-05-16T06:05:38.424Z,99783.25
2023-05-16T06:08:04.930Z,99789.03
2023-05-16T06:10:31.458Z,99786.53
2023-05-16T06:12:57.841Z,99789.88
2023-05-16T06:15:25.682Z,99790.38
2023-05-16T06:17:52.665Z,99796.41
2023-05-16T06:20:19.380Z,99795.78
2023-05-16T06:22:45.842Z,99802.44
2023-05-16T06:25:12.462Z,99802.81
2023-05-16T06:27:38.901Z,99806.41
2023-05-16T06:30:06.192Z,99805.81
2023-05-16T06:32:32.694Z,99806.78
2023-05-16T06:34:59.140Z,99814.50
2023-05-16T06:37:26.219Z,99815.47
2023-05-16T06:39:52.800Z,99812.31
2023-05-16T06:42:20.433Z,99816.06
2023-05-16T06:44:47.367Z,99817.88
2023-05-16T06:47:13.979Z,99818.38
2023-05-16T06:49:40.526Z,99819.22
2023-05-16T06:52:07.109Z,99820.16
2023-05-16T06:54:33.656Z,99819.47
2023-05-16T06:57:00.131Z,99824.03
2023-05-16T06:59:28.130Z,99827.78
2023-05-16T07:01:54.910Z,99834.78
2023-05-16T07:04:21.738Z,99833.69
2023-05-16T07:06:48.309Z,99849.84
2023-05-16T07:09:14.750Z,99861.28
2023-05-16T07:11:41.218Z,99864.00
2023-05-16T07:14:07.946Z,99865.53
2023-05-16T07:16:34.498Z,99877.91
2023-05-16T07:19:01.223Z,99869.97
2023-05-16T07:21:27.928Z,99869.38
2023-05-16T07:23:54.395Z,99877.22
2023-05-16T07:26:23.083Z,99875.94
2023-05-16T07:28:50.427Z,99893.53
2023-05-16T07:31:17.273Z,99906.00
2023-05-16T07:33:44.634Z,99906.66
2023-05-16T07:36:16.714Z,99910.31
2023-05-16T07:38:44.446Z,99914.91
2023-05-16T07:41:11.014Z,99902.84
2023-05-16T07:43:37.577Z,99909.16
2023-05-16T07:46:05.458Z,99899.81
2023-05-16T07:48:31.938Z,99909.88
2023-05-16T07:50:58.433Z,99905.50
2023-05-16T07:53:24.886Z,99905.50
2023-05-16T07:55:51.507Z,99913.78
2023-05-16T07:58:18.013Z,99918.72
2023-05-16T08:00:44.473Z,99920.03
2023-05-16T08:03:10.995Z,99921.72
2023-05-16T08:05:37.783Z,99925.59
2023-05-16T08:08:04.422Z,99934.69
2023-05-16T08:10:31.084Z,99937.47
2023-05-16T08:12:57.592Z,99937.50
2023-05-16T08:15:25.790Z,99941.28
2023-05-16T08:17:54.836Z,99930.88
2023-05-16T08:20:21.344Z,99932.97
2023-05-16T08:22:47.914Z,99931.72
2023-05-16T08:25:14.369Z,99938.16
2023-05-16T08:27:41.079Z,99936.50
2023-05-16T08:30:08.209Z,99935.69
2023-05-16T08:32:34.804Z,99940.81
2023-05-16T08:35:01.404Z,99937.47
2023-05-16T08:37:27.872Z,99934.94
2023-05-16T08:39:54.334Z,99932.81
2023-05-16T08:42:20.891Z,99940.44
2023-05-16T08:44:47.372Z,99944.03
2023-05-16T08:47:18.916Z,99946.69
2023-05-16T08:49:48.026Z,99967.00
2023-05-16T08:52:18.138Z,99969.63
2023-05-16T08:54:50.405Z,99975.78
2023-05-16T08:57:22.002Z,99971.69
2023-05-16T08:59:48.831Z,99975.53
2023-05-16T09:02:15.643Z,99980.81
2023-05-16T09:04:43.227Z,99964.16
2023-05-16T09:07:09.891Z,99970.63
2023-05-16T09:09:36.383Z,99967.88
2023-05-16T09:12:02.901Z,99973.28
2023-05-16T09:14:29.470Z,99972.34
2023-05-16T09:17:06.918Z,99975.72
2023-05-16T09:19:41.457Z,99970.81
2023-05-16T09:22:15.416Z,99967.72
2023-05-16T09:24:43.484Z,99974.75
2023-05-16T09:27:11.341Z,99976.09
2023-05-16T09:29:41.178Z,99988.19
2023-05-16T09:32:12.922Z,99974.03
2023-05-16T09:34:49.426Z,99984.44
2023-05-16T09:37:16.294Z,99983.56
2023-05-16T09:39:49.704Z,99975.59
2023-05-16T09:42:17.604Z,99974.66
2023-05-16T09:44:48.757Z,99970.09
2023-05-16T09:47:19.272Z,99970.94
2023-05-16T09:49:46.666Z,99986.75
2023-05-16T09:52:13.474Z,99977.47
2023-05-16T09:54:40.190Z,99984.28
2023-05-16T09:57:07.355Z,99994.13
2023-05-16T09:59:38.451Z,99992.16
2023-05-16T10:02:07.167Z,99997.97
2023-05-16T10:04:38.171Z,99987.97
2023-05-16T10:07:05.643Z,99989.44
2023-05-16T10:09:33.329Z,99995.50
2023-05-16T10:12:04.811Z,99996.88
2023-05-16T10:14:37.815Z,99999.09
2023-05-16T10:17:06.955Z,99993.97
2023-05-16T10:19:36.506Z,100000.34
2023-05-16T10:22:05.975Z,99992.81
2023-05-16T10:24:48.300Z,99998.88
2023-05-16T10:27:16.898Z,100002.28
2023-05-16T10:29:54.264Z,99996.09
2023-05-16T10:32:23.739Z,99988.06
2023-05-16T10:34:51.025Z,99999.19
2023-05-16T10:37:17.584Z,100000.50
2023-05-16T10:39:44.328Z,100003.22
2023-05-16T10:42:11.712Z,99999.75
2023-05-16T10:44:39.074Z,99999.25
2023-05-16T10:47:05.788Z,100005.44
2023-05-16T10:49:32.354Z,100005.63
2023-05-16T10:52:07.935Z,100007.38
2023-05-16T10:54:52.294Z,100011.47
2023-05-16T10:57:22.739Z,100010.78
2023-05-16T10:59:50.696Z,99999.75
2023-05-16T11:02:25.958Z,100007.59
2023-05-16T11:04:53.314Z,100006.50
2023-05-16T11:07:21.464Z,100006.06
2023-05-16T11:10:10.756Z,100010.09
2023-05-16T11:12:50.034Z,100014.03
2023-05-16T11:15:29.260Z,100021.78
2023-05-16T11:18:10.298Z,100019.13
2023-05-16T11:20:38.534Z,100023.75
2023-05-16T11:23:17.051Z,100028.31
2023-05-16T11:25:46.124Z,100019.47
2023-05-16T11:28:16.642Z,100029.75
2023-05-16T11:30:44.672Z,100021.03
2023-05-16T11:33:12.874Z,100023.06
2023-05-16T11:35:39.489Z,100026.84
2023-05-16T11:38:05.948Z,100029.25
2023-05-16T11:40:32.402Z,100022.81
2023-05-16T11:43:00.886Z,100025.00
2023-05-16T11:45:27.626Z,100019.38
2023-05-16T11:47:54.352Z,100029.72
2023-05-16T11:50:26.129Z,100029.22
2023-05-16T11:52:54.092Z,100035.66
2023-05-16T11:55:40.477Z,100039.25
2023-05-16T11:58:08.169Z,100037.81
2023-05-16T12:00:34.991Z,100028.31
2023-05-16T12:03:05.071Z,100036.91
2023-05-16T12:05:33.961Z,100027.03
2023-05-16T12:08:02.540Z,100039.59
2023-05-16T12:10:31.659Z,100034.19
2023-05-16T12:12:58.293Z,100027.72
2023-05-16T12:15:24.910Z,100033.81
2023-05-16T12:17:51.966Z,100037.53
2023-05-16T12:20:18.666Z,100037.56
2023-05-16T12:22:46.159Z,100029.94
2023-05-16T12:25:46.214Z,100034.22
2023-05-16T12:28:14.168Z,100029.59
2023-05-16T12:30:42.812Z,100024.75
2023-05-16T12:33:11.433Z,100036.94
2023-05-16T12:35:40.824Z,100031.59
2023-05-16T12:38:08.901Z,100033.63
2023-05-16T12:40:40.155Z,100046.47
2023-05-16T12:43:20.326Z,100040.28
2023-05-16T12:45:54.816Z,100036.19
2023-05-16T12:48:22.152Z,100044.75
2023-05-16T12:50:49.332Z,100036.72
2023-05-16T12:53:17.118Z,100038.53
2023-05-16T12:55:44.410Z,100043.84
2023-05-16T12:58:11.664Z,100043.59
2023-05-16T13:00:39.009Z,100035.13
2023-05-16T13:03:06.378Z,100031.88
2023-05-16T13:05:33.182Z,100034.81
2023-05-16T13:08:00.114Z,100034.13
2023-05-16T13:10:26.917Z,100028.00
2023-05-16T13:12:53.751Z,100037.66
2023-05-16T13:15:20.213Z,100036.16
2023-05-16T13:17:48.449Z,100039.44
2023-05-16T13:20:15.577Z,100035.09
2023-05-16T13:22:43.535Z,100018.34
2023-05-16T13:25:10.611Z,100027.38
2023-05-16T13:27:37.155Z,100033.38
2023-05-16T13:30:07.318Z,100017.47
2023-05-16T13:32:33.919Z,100030.41
2023-05-16T13:35:00.462Z,100020.53
2023-05-16T13:37:27.211Z,100024.19
2023-05-16T13:39:54.748Z,100026.00
2023-05-16T13:42:21.548Z,100032.97
2023-05-16T13:44:48.106Z,100019.53
2023-05-16T13:47:14.590Z,100033.22
2023-05-16T13:49:41.072Z,100017.06
2023-05-16T13:52:08.096Z,100021.53
2023-05-16T13:54:34.654Z,100012.75
2023-05-16T13:57:02.079Z,100010.94
2023-05-16T13:59:48.813Z,100031.97
2023-05-16T14:02:15.500Z,100028.16
2023-05-16T14:04:41.955Z,100022.22
2023-05-16T14:07:08.411Z,100017.47
2023-05-16T14:09:37.135Z,100036.06
2023-05-16T14:12:04.074Z,100037.59
2023-05-16T14:14:30.592Z,100030.81
2023-05-16T14:16:57.100Z,100035.63
2023-05-16T14:19:23.647Z,100028.31
2023-05-16T14:21:50.174Z,100034.09
2023-05-16T14:24:16.757Z,100022.84
2023-05-16T14:26:43.252Z,100021.75
2023-05-16T14:29:09.754Z,100020.91
2023-05-16T14:31:36.581Z,100033.56
2023-05-16T14:34:03.235Z,100029.00
2023-05-16T14:36:29.930Z,100033.38
2023-05-16T14:38:56.496Z,100024.09
2023-05-16T14:41:23.000Z,100022.91
2023-05-16T14:43:49.552Z,100025.72
2023-05-16T14:46:16.049Z,100018.28
2023-05-16T14:48:42.507Z,100028.41
2023-05-16T14:51:09.010Z,100025.59
2023-05-16T14:53:35.454Z,100027.00
2023-05-16T14:56:03.674Z,100020.94
2023-05-16T14:58:30.767Z,100020.94
2023-05-16T15:00:57.355Z,100026.63
2023-05-16T15:03:24.067Z,100019.47
2023-05-16T15:05:50.656Z,100022.34
2023-05-16T15:08:17.380Z,100025.25
2023-05-16T15:10:43.835Z,100016.88
2023-05-16T15:13:10.686Z,100012.03
2023-05-16T15:15:38.708Z,100017.53
2023-05-16T15:18:05.508Z,100015.41
2023-05-16T15:20:32.069Z,100010.06
2023-05-16T15:22:58.553Z,100010.75
2023-05-16T15:25:25.020Z,100022.44
2023-05-16T15:27:51.626Z,100014.06
2023-05-16T15:30:18.190Z,100020.81
2023-05-16T15:32:44.695Z,100017.03
2023-05-16T15:35:11.294Z,100020.25
2023-05-16T15:37:38.091Z,100033.59
2023-05-16T15:40:05.736Z,100042.47
2023-05-16T15:42:32.308Z,100027.28
2023-05-16T15:44:58.854Z,100031.34
2023-05-16T15:47:26.036Z,100036.63
2023-05-16T15:49:52.819Z,100020.59
2023-05-16T15:52:20.611Z,100024.25
2023-05-16T15:54:48.878Z,100015.69
2023-05-16T15:57:15.301Z,100025.81
2023-05-16T15:59:41.804Z,100027.75
2023-05-16T16:02:08.357Z,100018.75
2023-05-16T16:04:35.039Z,100059.53
2023-05-16T16:07:01.530Z,100036.63
2023-05-16T16:09:28.014Z,100034.34
2023-05-16T16:11:56.448Z,100028.34
2023-05-16T16:14:24.354Z,100030.84
2023-05-16T16:16:51.401Z,100032.28
2023-05-16T16:19:18.018Z,100047.03
2023-05-16T16:21:44.590Z,100038.31
2023-05-16T16:24:11.092Z,100028.47
2023-05-16T16:26:37.893Z,100034.09
2023-05-16T16:29:05.674Z,100044.94
2023-05-16T16:31:32.448Z,100038.44
2023-05-16T16:33:58.964Z,100044.50
2023-05-16T16:36:25.513Z,100046.16
2023-05-16T16:38:52.011Z,100037.84
2023-05-16T16:41:18.503Z,100042.97
2023-05-16T16:43:45.032Z,100033.59
2023-05-16T16:46:11.759Z,100039.44
2023-05-16T16:48:38.346Z,100050.53
2023-05-16T16:51:05.048Z,100037.88
2023-05-16T16:53:32.342Z,100054.13
2023-05-16T16:55:58.841Z,100043.41
2023-05-16T16:58:25.446Z,100054.13
2023-05-16T17:00:51.966Z,100042.63
2023-05-16T17:03:18.697Z,100044.03
2023-05-16T17:05:45.257Z,100050.97
2023-05-16T17:08:12.127Z,100036.25
2023-05-16T17:10:39.139Z,100041.31
2023-05-16T17:13:10.085Z,100042.03
2023-05-16T17:15:37.461Z,100046.50
2023-05-16T17:18:07.153Z,100049.91
2023-05-16T17:20:37.118Z,100048.50
2023-05-16T17:23:03.721Z,100055.09
2023-05-16T17:25:30.403Z,100073.63
2023-05-16T17:27:57.137Z,100073.59
2023-05-16T17:30:23.916Z,100068.41
2023-05-16T17:32:50.416Z,100073.44
2023-05-16T17:35:20.113Z,100067.75
2023-05-16T17:37:47.578Z,100077.53
2023-05-16T17:40:16.786Z,100069.03
2023-05-16T17:42:44.544Z,100075.03
2023-05-16T17:45:12.493Z,100072.53
2023-05-16T17:47:39.443Z,100078.19
2023-05-16T17:50:09.554Z,100075.97
2023-05-16T17:52:39.257Z,100080.59
2023-05-16T17:55:06.460Z,100069.16
2023-05-16T17:57:33.841Z,100073.47
2023-05-16T18:00:00.684Z,100074.13
2023-05-16T18:02:27.241Z,100081.53
2023-05-16T18:04:53.708Z,100077.56
2023-05-16T18:07:20.135Z,100081.91
2023-05-16T18:09:46.607Z,100090.31
2023-05-16T18:12:13.335Z,100088.44
2023-05-16T18:14:40.018Z,100090.00
2023-05-16T18:17:06.543Z,100093.22
2023-05-16T18:19:33.126Z,100104.00
2023-05-16T18:21:59.908Z,100106.22
2023-05-16T18:24:26.423Z,100104.53
2023-05-16T18:26:52.932Z,100117.34
2023-05-16T18:29:19.497Z,100105.75
2023-05-16T18:31:46.289Z,100107.53
2023-05-16T18:34:12.886Z,100114.84
2023-05-16T18:36:39.328Z,100107.44
2023-05-16T18:39:05.850Z,100108.88
2023-05-16T18:41:32.279Z,100111.78
2023-05-16T18:43:58.742Z,100118.47
2023-05-16T18:46:25.257Z,100127.28
2023-05-16T18:48:51.803Z,100124.03
2023-05-16T18:51:18.351Z,100136.28
2023-05-16T18:53:47.557Z,100133.53
2023-05-16T18:56:13.948Z,100148.66
2023-05-16T18:58:40.518Z,100151.56
2023-05-16T19:01:06.976Z,100151.94
2023-05-16T19:03:33.692Z,100152.78
2023-05-16T19:06:00.286Z,100157.38
2023-05-16T19:08:31.274Z,100157.31
2023-05-16T19:11:03.364Z,100167.91
2023-05-16T19:13:32.291Z,100167.19
2023-05-16T19:15:58.725Z,100180.19
2023-05-16T19:18:25.283Z,100182.59
2023-05-16T19:20:51.921Z,100192.91
2023-05-16T19:23:18.639Z,100198.59
2023-05-16T19:25:49.017Z,100194.44
2023-05-16T19:28:16.421Z,100197.59
2023-05-16T19:30:42.977Z,100208.97
2023-05-16T19:33:10.114Z,100205.94
2023-05-16T19:35:36.657Z,100212.31
2023-05-16T19:38:03.179Z,100220.09
2023-05-16T19:40:30.064Z,100223.63
2023-05-16T19:42:56.564Z,100225.84
2023-05-16T19:45:23.136Z,100228.34
2023-05-16T19:47:49.725Z,100232.56
2023-05-16T19:50:16.417Z,100232.34
2023-05-16T19:52:42.869Z,100240.09
2023-05-16T19:55:10.399Z,100247.75
2023-05-16T19:57:37.394Z,100251.88
2023-05-16T20:00:05.273Z,100250.59
2023-05-16T20:02:39.260Z,100257.88
2023-05-16T20:05:06.507Z,100260.97
2023-05-16T20:07:32.994Z,100267.63
2023-05-16T20:09:59.540Z,100271.56
2023-05-16T20:12:26.196Z,100280.75
2023-05-16T20:14:52.694Z,100281.91
2023-05-16T20:17:19.176Z,100285.06
2023-05-16T20:19:46.568Z,100290.66
2023-05-16T20:22:13.088Z,100277.75
2023-05-16T20:24:39.659Z,100290.44
2023-05-16T20:27:06.147Z,100288.84
2023-05-16T20:29:33.742Z,100288.19
2023-05-16T20:32:00.676Z,100289.31
2023-05-16T20:34:27.877Z,100298.31
2023-05-16T20:36:54.368Z,100296.69
2023-05-16T20:39:20.832Z,100299.66
2023-05-16T20:41:47.537Z,100301.75
2023-05-16T20:44:15.221Z,100301.88
2023-05-16T20:46:43.038Z,100301.00
2023-05-16T20:49:09.537Z,100312.47
2023-05-16T20:51:36.234Z,100318.69
2023-05-16T20:54:02.689Z,100311.69
2023-05-16T20:56:29.200Z,100318.03
2023-05-16T20:58:55.649Z,100317.19
2023-05-16T21:01:22.280Z,100320.97
2023-05-16T21:03:48.802Z,100318.53
2023-05-16T21:06:15.275Z,100311.63
2023-05-16T21:08:41.841Z,100322.00
2023-05-16T21:11:09.372Z,100324.75
2023-05-16T21:13:35.888Z,100322.22
2023-05-16T21:16:02.389Z,100317.28
2023-05-16T21:18:28.972Z,100327.13
2023-05-16T21:20:55.589Z,100332.63
2023-05-16T21:23:22.143Z,100335.38
2023-05-16T21:25:48.582Z,100341.88
2023-05-16T21:28:15.068Z,100346.50
2023-05-16T21:30:41.545Z,100343.84
2023-05-16T21:33:08.064Z,100341.38
2023-05-16T21:35:34.685Z,100343.34
2023-05-16T21:38:01.178Z,100345.16
2023-05-16T21:40:28.721Z,100346.31
2023-05-16T21:42:55.283Z,100342.88
2023-05-16T21:45:21.784Z,100341.28
2023-05-16T21:47:48.559Z,100344.97
2023-05-16T21:50:15.339Z,100351.84
2023-05-16T21:52:42.007Z,100358.38
2023-05-16T21:55:08.835Z,100355.81
2023-05-16T21:57:35.515Z,100363.00
2023-05-16T22:00:06.781Z,100363.09
2023-05-16T22:02:34.540Z,100361.75
2023-05-16T22:05:01.328Z,100364.66
2023-05-16T22:07:31.491Z,100360.25
2023-05-16T22:09:58.908Z,100365.72
2023-05-16T22:12:26.393Z,100367.63
2023-05-16T22:14:52.956Z,100365.91
2023-05-16T22:17:20.123Z,100377.50
2023-05-16T22:19:46.901Z,100372.47
2023-05-16T22:22:13.544Z,100375.22
2023-05-16T22:24:40.044Z,100372.59
2023-05-16T22:27:06.799Z,100372.78
2023-05-16T22:29:37.927Z,100377.97
2023-05-16T22:32:08.699Z,100381.44
2023-05-16T22:34:41.702Z,100373.72
2023-05-16T22:37:09.142Z,100382.84
2023-05-16T22:39:35.948Z,100376.03
2023-05-16T22:42:03.495Z,100370.94
2023-05-16T22:44:30.305Z,100372.72
2023-05-16T22:46:56.882Z,100382.44
2023-05-16T22:49:23.349Z,100374.69
2023-05-16T22:51:49.890Z,100379.13
2023-05-16T22:54:16.627Z,100378.28
2023-05-16T22:56:43.320Z,100376.72
2023-05-16T22:59:09.778Z,100387.31
2023-05-16T23:01:37.312Z,100377.03
2023-05-16T23:04:03.953Z,100377.19
2023-05-16T23:06:32.294Z,100385.28
2023-05-16T23:09:00.312Z,100377.56
2023-05-16T23:11:26.848Z,100380.53
2023-05-16T23:13:53.494Z,100384.28
2023-05-16T23:16:20.037Z,100389.56
2023-05-16T23:18:46.781Z,100391.69
2023-05-16T23:21:13.409Z,100390.97
2023-05-16T23:23:40.185Z,100388.22
2023-05-16T23:26:06.735Z,100390.19
2023-05-16T23:28:33.197Z,100387.03
2023-05-16T23:30:59.624Z,100391.53
2023-05-16T23:33:26.178Z,100399.56
2023-05-16T23:35:52.637Z,100398.97
2023-05-16T23:38:19.097Z,100394.78
2023-05-16T23:40:45.816Z,100397.44
2023-05-16T23:43:12.237Z,100396.75
2023-05-16T23:45:38.710Z,100403.03
2023-05-16T23:48:05.666Z,100403.13
2023-05-16T23:50:32.243Z,100408.41
2023-05-16T23:52:58.702Z,100404.06
2023-05-16T23:55:25.303Z,100402.34
2023-05-16T23:57:51.790Z,100410.09
